Terminal Aerodrome Forecast
Issued by NWS

Home | Current Version | Previous Version | Text Only | Print | Product List | Glossary On
Versions: 1 2 3 4 5 6 7 8 9 10 11 12 13 14 15 16 17 18
000
FTUS42 TJSJ 020529
TAFJSJ
TAF
TJSJ 020529Z 0206/0306 00000KT P6SM VCSH FEW040 SCT060
     FM021400 06014KT P6SM VCSH SCT030 BKN070
     FM022300 10008KT P6SM VCSH FEW035 SCT060=

USA.gov is the U.S. government's official web portal to all federal, state and local government web resources and services.